Time;durP1;ratioP1;P1;durP2;ratioP2;P2;SDS_P1;SDS_P2;PMS_P1;PMS_P2;Temp;Humidity;BMP_temperature;BMP_pressure;BME280_temperature;BME280_humidity;BME280_pressure;Samples;Min_cycle;Max_cycle;Signal;HPM_P1;HPM_P2
2022/04/04 00:00:54;;;;;;;3.70;3.07;;;;;;;;;;6155309;23;20250;-83
2022/04/04 00:03:23;;;;;;;3.30;3.00;;;;;;;;;;6129448;23;20200;-82
2022/04/04 00:05:52;;;;;;;5.93;3.97;;;;;;;;;;6154127;23;20208;-82
2022/04/04 00:08:22;;;;;;;4.43;3.17;;;;;;;;;;6128908;23;20180;-82
2022/04/04 00:10:50;;;;;;;8.87;4.40;;;;;;;;;;6129623;23;20247;-82
2022/04/04 00:13:19;;;;;;;6.27;4.67;;;;;;;;;;6129150;23;20182;-83
2022/04/04 00:15:48;;;;;;;4.80;2.83;;;;;;;;;;6153877;23;20177;-82
2022/04/04 00:18:17;;;;;;;3.83;3.50;;;;;;;;;;6153638;23;20213;-82
2022/04/04 00:20:45;;;;;;;4.30;3.63;;;;;;;;;;6155400;23;20184;-82
2022/04/04 00:23:13;;;;;;;7.60;3.67;;;;;;;;;;6129471;23;20179;-82
2022/04/04 00:25:44;;;;;;;6.07;4.50;;;;;;;;;;6153642;23;20275;-82
2022/04/04 00:28:13;;;;;;;6.93;5.63;;;;;;;;;;6129306;23;20240;-82
2022/04/04 00:30:42;;;;;;;6.00;4.57;;;;;;;;;;6129294;23;20182;-83
2022/04/04 00:33:10;;;;;;;7.47;4.50;;;;;;;;;;6155028;23;20177;-82
2022/04/04 00:35:39;;;;;;;4.90;3.80;;;;;;;;;;6129599;23;20172;-82
2022/04/04 00:38:10;;;;;;;8.13;4.17;;;;;;;;;;6129353;23;20193;-82
2022/04/04 00:40:40;;;;;;;8.03;5.67;;;;;;;;;;6129003;23;20268;-82
2022/04/04 00:43:10;;;;;;;6.87;3.63;;;;;;;;;;6153566;23;20181;-82
2022/04/04 00:45:38;;;;;;;5.33;4.77;;;;;;;;;;6155214;23;20222;-83
2022/04/04 00:48:07;;;;;;;7.77;3.97;;;;;;;;;;6129347;23;20176;-82
2022/04/04 00:50:36;;;;;;;11.03;7.53;;;;;;;;;;6153516;23;20432;-82
2022/04/04 00:53:04;;;;;;;9.87;5.27;;;;;;;;;;6155378;23;20176;-82
2022/04/04 00:55:33;;;;;;;7.53;4.27;;;;;;;;;;6154842;23;20178;-82
2022/04/04 00:58:01;;;;;;;5.47;4.77;;;;;;;;;;6129890;23;20197;-82
2022/04/04 01:00:31;;;;;;;7.30;3.60;;;;;;;;;;6155136;23;20204;-82
2022/04/04 01:03:00;;;;;;;9.53;6.40;;;;;;;;;;6131036;23;20240;-83
2022/04/04 01:05:30;;;;;;;8.07;6.23;;;;;;;;;;6155683;23;20218;-82
2022/04/04 01:07:58;;;;;;;9.70;6.27;;;;;;;;;;6155365;23;20176;-83
2022/04/04 01:10:28;;;;;;;7.63;6.27;;;;;;;;;;6156641;23;20200;-83
2022/04/04 01:12:57;;;;;;;10.60;4.93;;;;;;;;;;6155610;23;20176;-82
2022/04/04 01:15:32;;;;;;;5.50;4.27;;;;;;;;;;6130885;23;20216;-82
2022/04/04 01:18:02;;;;;;;8.97;4.50;;;;;;;;;;6155605;23;20234;-82
2022/04/04 01:20:31;;;;;;;6.47;4.90;;;;;;;;;;6155735;23;20181;-82
2022/04/04 01:23:00;;;;;;;5.40;4.27;;;;;;;;;;6130803;23;20176;-83
2022/04/04 01:25:30;;;;;;;4.43;4.07;;;;;;;;;;6155562;23;20211;-82
2022/04/04 01:27:59;;;;;;;6.97;5.33;;;;;;;;;;6155351;23;20185;-83
2022/04/04 01:30:29;;;;;;;7.60;5.63;;;;;;;;;;6155640;23;20204;-82
2022/04/04 01:32:57;;;;;;;4.40;4.00;;;;;;;;;;6155592;23;20267;-82
2022/04/04 01:35:26;;;;;;;7.50;6.03;;;;;;;;;;6130999;23;20173;-82
2022/04/04 01:37:54;;;;;;;7.30;5.40;;;;;;;;;;6130517;23;20201;-82
2022/04/04 01:40:23;;;;;;;6.97;5.03;;;;;;;;;;6130400;23;20176;-83
2022/04/04 01:42:54;;;;;;;10.03;4.83;;;;;;;;;;6155196;23;20181;-82
2022/04/04 01:48:06;;;;;;;8.43;7.63;;;;;;;;;;6154248;23;20212;-82
2022/04/04 01:50:35;;;;;;;7.30;5.93;;;;;;;;;;6130350;23;20263;-82
2022/04/04 01:55:49;;;;;;;4.80;4.40;;;;;;;;;;6156519;23;20176;-82
2022/04/04 01:58:19;;;;;;;16.10;8.43;;;;;;;;;;6130717;23;20187;-82
2022/04/04 02:00:48;;;;;;;24.87;8.17;;;;;;;;;;6155382;23;20173;-82
2022/04/04 02:03:16;;;;;;;7.53;5.73;;;;;;;;;;6154839;23;20223;-82
2022/04/04 02:05:46;;;;;;;7.70;5.20;;;;;;;;;;6156066;23;20173;-82
2022/04/04 02:08:14;;;;;;;4.90;4.43;;;;;;;;;;6155314;23;20172;-82
2022/04/04 02:10:44;;;;;;;7.43;4.67;;;;;;;;;;6129695;23;20177;-82
2022/04/04 02:13:12;;;;;;;7.37;4.23;;;;;;;;;;6155350;23;20204;-83
2022/04/04 02:15:42;;;;;;;8.67;5.97;;;;;;;;;;6155105;23;20184;-83
2022/04/04 02:18:11;;;;;;;9.03;6.10;;;;;;;;;;6154103;23;20222;-82
2022/04/04 02:20:39;;;;;;;11.30;4.90;;;;;;;;;;6154239;23;20187;-83
2022/04/04 02:23:08;;;;;;;4.83;4.00;;;;;;;;;;6130640;23;20177;-82
2022/04/04 02:25:37;;;;;;;11.90;5.77;;;;;;;;;;6155971;23;20181;-82
2022/04/04 02:28:05;;;;;;;8.33;4.07;;;;;;;;;;6130525;23;20174;-82
2022/04/04 02:30:34;;;;;;;15.30;5.13;;;;;;;;;;6154629;23;20178;-82
2022/04/04 02:33:03;;;;;;;12.57;6.23;;;;;;;;;;6129965;23;20184;-83
2022/04/04 02:35:32;;;;;;;8.13;4.33;;;;;;;;;;6130040;23;20248;-83
2022/04/04 02:38:01;;;;;;;6.30;4.63;;;;;;;;;;6154373;23;20200;-83
2022/04/04 02:40:29;;;;;;;9.67;6.07;;;;;;;;;;6130188;23;20184;-82
2022/04/04 02:42:58;;;;;;;6.10;3.73;;;;;;;;;;6155048;23;20178;-82
2022/04/04 02:45:26;;;;;;;9.10;3.73;;;;;;;;;;6155787;23;20177;-83
2022/04/04 02:47:55;;;;;;;7.43;6.03;;;;;;;;;;6156395;23;20168;-83
2022/04/04 02:50:25;;;;;;;11.47;6.10;;;;;;;;;;6154077;23;20177;-82
2022/04/04 02:52:53;;;;;;;6.17;4.63;;;;;;;;;;6154670;23;20172;-82
2022/04/04 02:58:09;;;;;;;13.37;6.37;;;;;;;;;;6155867;23;20200;-82
2022/04/04 03:00:37;;;;;;;13.00;5.17;;;;;;;;;;6154752;23;20189;-82
2022/04/04 03:03:06;;;;;;;11.80;5.97;;;;;;;;;;6129922;23;20181;-82
2022/04/04 03:05:36;;;;;;;9.37;4.23;;;;;;;;;;6154150;23;20172;-83
2022/04/04 03:08:05;;;;;;;7.67;4.43;;;;;;;;;;6154243;23;20179;-82
2022/04/04 03:10:34;;;;;;;14.23;4.83;;;;;;;;;;6155842;23;20175;-82
2022/04/04 03:13:05;;;;;;;10.00;5.53;;;;;;;;;;6129604;23;20265;-83
2022/04/04 03:15:35;;;;;;;10.20;3.47;;;;;;;;;;6129709;23;20180;-82
2022/04/04 03:18:04;;;;;;;5.47;4.83;;;;;;;;;;6129198;23;20304;-82
2022/04/04 03:20:34;;;;;;;7.23;3.47;;;;;;;;;;6153923;23;20182;-82
2022/04/04 03:23:03;;;;;;;6.33;3.20;;;;;;;;;;6155615;23;20176;-83
2022/04/04 03:25:32;;;;;;;8.90;4.33;;;;;;;;;;6129490;23;20182;-82
2022/04/04 03:28:00;;;;;;;17.93;4.60;;;;;;;;;;6129705;23;20232;-82
2022/04/04 03:30:29;;;;;;;11.70;5.17;;;;;;;;;;6154491;23;20177;-82
2022/04/04 03:32:59;;;;;;;10.37;5.03;;;;;;;;;;6154300;23;20255;-82
2022/04/04 03:35:29;;;;;;;8.30;4.57;;;;;;;;;;6129549;23;20204;-83
2022/04/04 03:37:58;;;;;;;13.03;5.17;;;;;;;;;;6155485;23;20184;-82
2022/04/04 03:40:28;;;;;;;7.67;5.33;;;;;;;;;;6129220;23;20177;-82
2022/04/04 03:42:57;;;;;;;14.80;5.60;;;;;;;;;;6154320;23;20181;-82
2022/04/04 03:45:26;;;;;;;15.43;6.37;;;;;;;;;;6155409;23;20185;-82
2022/04/04 03:47:55;;;;;;;11.93;5.37;;;;;;;;;;6153813;23;20187;-82
2022/04/04 03:50:24;;;;;;;8.20;4.27;;;;;;;;;;6153890;23;20195;-83
2022/04/04 03:52:53;;;;;;;7.83;4.40;;;;;;;;;;6129447;23;20181;-82
2022/04/04 03:55:23;;;;;;;8.73;4.97;;;;;;;;;;6129334;23;20177;-82
2022/04/04 03:57:53;;;;;;;12.40;6.50;;;;;;;;;;6128978;23;20181;-83
2022/04/04 04:00:21;;;;;;;13.80;6.17;;;;;;;;;;6129056;23;20276;-82
2022/04/04 04:02:50;;;;;;;5.00;3.07;;;;;;;;;;6129563;23;20218;-82
2022/04/04 04:05:19;;;;;;;8.17;4.33;;;;;;;;;;6153999;23;20201;-82
2022/04/04 04:07:48;;;;;;;7.53;4.30;;;;;;;;;;6129529;23;20183;-83
2022/04/04 04:10:16;;;;;;;7.20;4.97;;;;;;;;;;6153747;23;20174;-82
2022/04/04 04:12:46;;;;;;;8.43;4.50;;;;;;;;;;6104677;23;20209;-82
2022/04/04 04:15:17;;;;;;;6.70;4.50;;;;;;;;;;6153824;23;20184;-82
2022/04/04 04:17:46;;;;;;;8.60;4.03;;;;;;;;;;6153583;23;20182;-83
2022/04/04 04:20:19;;;;;;;8.67;4.90;;;;;;;;;;6154163;23;20193;-82
2022/04/04 04:22:49;;;;;;;9.03;4.10;;;;;;;;;;6153651;23;20182;-82
2022/04/04 04:25:17;;;;;;;4.80;4.27;;;;;;;;;;6153924;23;20208;-82
2022/04/04 04:27:47;;;;;;;6.07;3.97;;;;;;;;;;6153639;23;20173;-82
2022/04/04 04:30:17;;;;;;;9.47;4.77;;;;;;;;;;6129156;23;20179;-82
2022/04/04 04:32:46;;;;;;;7.60;4.03;;;;;;;;;;6129551;23;20180;-83
2022/04/04 04:35:15;;;;;;;7.33;3.07;;;;;;;;;;6157022;23;20174;-82
2022/04/04 04:37:44;;;;;;;7.13;4.03;;;;;;;;;;6130964;23;20207;-82
2022/04/04 04:40:12;;;;;;;6.50;3.80;;;;;;;;;;6155833;23;20197;-82
2022/04/04 04:42:42;;;;;;;7.53;3.83;;;;;;;;;;6131218;23;20249;-82
2022/04/04 04:45:10;;;;;;;4.37;2.50;;;;;;;;;;6131447;23;20175;-82
2022/04/04 04:47:40;;;;;;;9.40;3.53;;;;;;;;;;6131234;23;20183;-83
2022/04/04 04:50:12;;;;;;;10.27;3.67;;;;;;;;;;6155782;23;20181;-83
2022/04/04 04:52:41;;;;;;;10.57;4.03;;;;;;;;;;6131416;23;20181;-83
2022/04/04 04:55:11;;;;;;;8.43;4.87;;;;;;;;;;6155453;23;20188;-83
2022/04/04 04:57:39;;;;;;;5.93;3.20;;;;;;;;;;6156009;23;20179;-82
2022/04/04 05:00:10;;;;;;;7.07;3.93;;;;;;;;;;6155196;23;20202;-82
2022/04/04 05:02:40;;;;;;;6.20;3.50;;;;;;;;;;6131244;23;20267;-82
2022/04/04 05:05:09;;;;;;;3.77;2.60;;;;;;;;;;6156531;23;20200;-83
2022/04/04 05:07:37;;;;;;;3.73;2.77;;;;;;;;;;6155483;23;20181;-82
2022/04/04 05:10:06;;;;;;;6.13;3.07;;;;;;;;;;6155230;23;20173;-82
2022/04/04 05:12:35;;;;;;;8.63;3.87;;;;;;;;;;6156694;23;20200;-82
2022/04/04 05:15:03;;;;;;;5.10;3.10;;;;;;;;;;6131055;23;20177;-82
2022/04/04 05:17:32;;;;;;;6.23;3.67;;;;;;;;;;6130991;23;20180;-82
2022/04/04 05:20:02;;;;;;;5.10;3.70;;;;;;;;;;6154904;23;20213;-82
2022/04/04 05:22:30;;;;;;;5.67;4.10;;;;;;;;;;6155206;23;20181;-82
2022/04/04 05:24:59;;;;;;;3.10;2.77;;;;;;;;;;6155387;23;20211;-82
2022/04/04 05:27:27;;;;;;;6.93;3.77;;;;;;;;;;6155195;23;20180;-83
2022/04/04 05:29:56;;;;;;;6.57;3.60;;;;;;;;;;6155733;23;20172;-82
2022/04/04 05:32:24;;;;;;;4.57;3.43;;;;;;;;;;6130500;23;20181;-82
2022/04/04 05:35:07;;;;;;;8.90;3.83;;;;;;;;;;6155526;23;20186;-82
2022/04/04 05:37:38;;;;;;;6.83;4.97;;;;;;;;;;6130222;23;20263;-82
2022/04/04 05:40:08;;;;;;;4.73;4.33;;;;;;;;;;6155291;23;20197;-82
2022/04/04 05:42:42;;;;;;;6.73;4.53;;;;;;;;;;6156698;23;20176;-82
2022/04/04 05:45:11;;;;;;;4.80;3.50;;;;;;;;;;6154867;23;20175;-82
2022/04/04 05:47:41;;;;;;;8.67;4.47;;;;;;;;;;6154990;23;20210;-82
2022/04/04 05:50:10;;;;;;;7.77;5.17;;;;;;;;;;6156323;23;20175;-83
2022/04/04 05:52:41;;;;;;;8.63;5.23;;;;;;;;;;6130870;23;20181;-82
2022/04/04 05:55:10;;;;;;;6.67;4.53;;;;;;;;;;6156391;23;20168;-82
2022/04/04 05:57:39;;;;;;;5.73;4.23;;;;;;;;;;6156115;23;20170;-82
2022/04/04 06:00:10;;;;;;;6.03;5.20;;;;;;;;;;6130742;23;20206;-82
2022/04/04 06:02:39;;;;;;;6.93;4.63;;;;;;;;;;6154669;23;20208;-81
2022/04/04 06:05:09;;;;;;;6.60;5.17;;;;;;;;;;6130206;23;20201;-81
2022/04/04 06:07:38;;;;;;;6.00;5.17;;;;;;;;;;6154776;23;20176;-81
2022/04/04 06:10:09;;;;;;;5.83;5.00;;;;;;;;;;6129973;23;20200;-81
2022/04/04 06:12:38;;;;;;;9.53;6.37;;;;;;;;;;6154470;23;20188;-81
2022/04/04 06:15:07;;;;;;;12.03;7.90;;;;;;;;;;6154796;23;20180;-80
2022/04/04 06:17:36;;;;;;;7.20;5.40;;;;;;;;;;6130240;23;20207;-81
2022/04/04 06:20:04;;;;;;;9.90;4.60;;;;;;;;;;6129797;23;20213;-81
2022/04/04 06:22:38;;;;;;;6.20;5.07;;;;;;;;;;6154916;23;20186;-81
2022/04/04 06:25:09;;;;;;;7.63;4.63;;;;;;;;;;6130476;23;20242;-81
2022/04/04 06:27:39;;;;;;;5.83;4.50;;;;;;;;;;6129559;23;20184;-81
2022/04/04 06:30:08;;;;;;;15.07;4.77;;;;;;;;;;6130579;23;20177;-81
2022/04/04 06:32:37;;;;;;;20.27;5.67;;;;;;;;;;6130336;23;20223;-81
2022/04/04 06:35:06;;;;;;;11.00;5.83;;;;;;;;;;6130425;23;20180;-81
2022/04/04 06:37:34;;;;;;;8.80;5.23;;;;;;;;;;6129628;23;20175;-81
2022/04/04 06:40:03;;;;;;;4.80;3.50;;;;;;;;;;6155969;23;20191;-81
2022/04/04 06:42:35;;;;;;;7.80;4.87;;;;;;;;;;6129977;23;20187;-79
2022/04/04 06:45:04;;;;;;;15.53;8.07;;;;;;;;;;6130488;23;20180;-81
2022/04/04 06:47:32;;;;;;;13.80;6.60;;;;;;;;;;6130050;23;20184;-81
2022/04/04 06:50:01;;;;;;;10.20;5.80;;;;;;;;;;6155755;23;20172;-82
2022/04/04 06:52:30;;;;;;;10.40;4.20;;;;;;;;;;6129640;23;20180;-81
2022/04/04 06:54:59;;;;;;;9.10;5.07;;;;;;;;;;6153852;23;20203;-83
2022/04/04 06:57:29;;;;;;;8.40;6.13;;;;;;;;;;6130074;23;20176;-83
2022/04/04 07:00:03;;;;;;;9.07;5.17;;;;;;;;;;6130229;23;20187;-83
2022/04/04 07:02:31;;;;;;;6.47;4.87;;;;;;;;;;6130234;23;20183;-82
2022/04/04 07:05:00;;;;;;;7.83;4.90;;;;;;;;;;6129811;23;20197;-82
2022/04/04 07:07:29;;;;;;;10.57;6.73;;;;;;;;;;6156009;23;20167;-82
2022/04/04 07:09:57;;;;;;;9.27;4.87;;;;;;;;;;6129480;23;20208;-82
2022/04/04 07:12:29;;;;;;;6.97;4.60;;;;;;;;;;6129641;23;20176;-82
2022/04/04 07:14:58;;;;;;;9.63;5.67;;;;;;;;;;6129518;23;20227;-83
2022/04/04 07:17:28;;;;;;;12.10;6.53;;;;;;;;;;6155604;23;20173;-83
2022/04/04 07:19:57;;;;;;;8.53;5.77;;;;;;;;;;6157030;23;20208;-82
2022/04/04 07:22:25;;;;;;;6.87;4.47;;;;;;;;;;6159001;23;20182;-83
2022/04/04 07:24:54;;;;;;;8.10;5.00;;;;;;;;;;6159202;23;20182;-82
2022/04/04 07:27:22;;;;;;;13.00;4.70;;;;;;;;;;6185300;23;20262;-82
2022/04/04 07:29:53;;;;;;;8.87;5.00;;;;;;;;;;6185205;23;20176;-82
2022/04/04 07:32:26;;;;;;;7.70;4.63;;;;;;;;;;6158664;23;20170;-82
2022/04/04 07:34:56;;;;;;;8.93;4.87;;;;;;;;;;6159008;23;20234;-82
2022/04/04 07:37:25;;;;;;;7.20;4.27;;;;;;;;;;6159102;23;20184;-83
2022/04/04 07:39:54;;;;;;;13.83;5.80;;;;;;;;;;6184394;23;20496;-83
2022/04/04 07:42:22;;;;;;;15.90;6.83;;;;;;;;;;6184520;23;20195;-83
2022/04/04 07:44:51;;;;;;;13.33;7.33;;;;;;;;;;6158751;23;20175;-85
2022/04/04 07:47:19;;;;;;;8.63;6.43;;;;;;;;;;6158659;23;20262;-89
2022/04/04 07:49:58;;;;;;;7.93;6.13;;;;;;;;;;6158931;23;20189;-87
2022/04/04 07:52:30;;;;;;;11.13;6.50;;;;;;;;;;6161478;23;20174;-89
2022/04/04 07:55:02;;;;;;;16.33;5.90;;;;;;;;;;6187113;23;20186;-90
2022/04/04 07:57:31;;;;;;;11.90;6.23;;;;;;;;;;6187074;23;20242;-90
2022/04/04 08:00:00;;;;;;;12.07;6.90;;;;;;;;;;6183192;23;20175;-89
2022/04/04 08:02:29;;;;;;;13.07;6.50;;;;;;;;;;6164935;23;20200;-91
2022/04/04 08:05:03;;;;;;;15.93;7.73;;;;;;;;;;6162952;23;20287;-87
2022/04/04 08:07:33;;;;;;;10.60;5.63;;;;;;;;;;6185808;23;20257;-93
2022/04/04 08:10:01;;;;;;;13.10;7.77;;;;;;;;;;6186525;23;20270;-90
2022/04/04 08:12:30;;;;;;;21.93;7.67;;;;;;;;;;6158430;23;20172;-90
2022/04/04 08:14:59;;;;;;;14.57;6.87;;;;;;;;;;6158263;23;20186;-89
2022/04/04 08:17:27;;;;;;;9.07;5.57;;;;;;;;;;6184274;23;20251;-92
2022/04/04 08:19:56;;;;;;;10.97;5.43;;;;;;;;;;6185830;23;20214;-92
2022/04/04 08:22:29;;;;;;;18.93;6.33;;;;;;;;;;6187093;23;20217;-91
2022/04/04 08:25:00;;;;;;;9.83;4.77;;;;;;;;;;6160164;23;20202;-92
2022/04/04 08:27:29;;;;;;;12.37;5.90;;;;;;;;;;6163815;23;20183;-90
2022/04/04 08:29:57;;;;;;;12.53;5.37;;;;;;;;;;6162568;23;20202;-92
2022/04/04 08:32:26;;;;;;;11.20;6.60;;;;;;;;;;6183989;23;20246;-91
2022/04/04 08:34:55;;;;;;;22.07;6.87;;;;;;;;;;6160256;23;20385;-89
2022/04/04 08:37:23;;;;;;;13.47;5.03;;;;;;;;;;6184040;23;20175;-86
2022/04/04 08:39:56;;;;;;;12.20;7.43;;;;;;;;;;6185223;23;20174;-90
2022/04/04 08:42:31;;;;;;;16.70;5.93;;;;;;;;;;6181797;23;20193;-87
2022/04/04 08:45:00;;;;;;;7.80;5.47;;;;;;;;;;6154599;23;20178;-85
2022/04/04 08:47:29;;;;;;;10.23;6.03;;;;;;;;;;6154977;23;20190;-87
2022/04/04 08:49:59;;;;;;;15.33;6.80;;;;;;;;;;6154561;23;20194;-85
2022/04/04 08:52:28;;;;;;;10.73;5.90;;;;;;;;;;6180642;23;20179;-88
2022/04/04 08:54:58;;;;;;;16.97;8.13;;;;;;;;;;6180377;23;20184;-88
2022/04/04 08:57:27;;;;;;;13.50;5.40;;;;;;;;;;6156309;23;20254;-87
2022/04/04 08:59:55;;;;;;;18.60;5.60;;;;;;;;;;6155369;23;20186;-86
2022/04/04 09:02:24;;;;;;;14.30;5.60;;;;;;;;;;6155826;23;20227;-88
2022/04/04 09:04:53;;;;;;;13.57;7.33;;;;;;;;;;6180677;23;20320;-87
2022/04/04 09:07:25;;;;;;;15.63;5.70;;;;;;;;;;6155495;23;20179;-88
2022/04/04 09:09:53;;;;;;;9.80;5.43;;;;;;;;;;6154176;23;20182;-87
2022/04/04 09:12:24;;;;;;;15.73;7.23;;;;;;;;;;6155937;23;20204;-88
2022/04/04 09:14:53;;;;;;;18.07;6.30;;;;;;;;;;6156841;23;20183;-86
2022/04/04 09:17:24;;;;;;;11.07;4.57;;;;;;;;;;6156070;23;20175;-86
2022/04/04 09:19:53;;;;;;;11.97;5.53;;;;;;;;;;6154633;23;20208;-86
2022/04/04 09:22:22;;;;;;;14.27;5.40;;;;;;;;;;6152765;23;20231;-87
2022/04/04 09:24:52;;;;;;;8.87;3.77;;;;;;;;;;6152061;23;20180;-85
2022/04/04 09:27:25;;;;;;;11.33;3.87;;;;;;;;;;6151906;23;20266;-87
2022/04/04 09:29:56;;;;;;;10.47;4.03;;;;;;;;;;6153639;23;20219;-87
2022/04/04 09:32:35;;;;;;;6.57;3.57;;;;;;;;;;6153602;23;20223;-89
2022/04/04 09:35:08;;;;;;;7.70;2.90;;;;;;;;;;6152371;23;20376;-89
2022/04/04 09:37:38;;;;;;;6.87;3.30;;;;;;;;;;6153205;23;20176;-88
2022/04/04 09:40:12;;;;;;;9.07;4.33;;;;;;;;;;6152515;23;20180;-87
2022/04/04 09:42:45;;;;;;;4.80;3.40;;;;;;;;;;6153889;23;20216;-88
2022/04/04 09:45:16;;;;;;;12.50;5.90;;;;;;;;;;6152773;23;20199;-89
2022/04/04 09:47:55;;;;;;;9.20;4.27;;;;;;;;;;6153137;23;20205;-87
2022/04/04 09:50:35;;;;;;;7.80;3.90;;;;;;;;;;6152740;23;20181;-87
2022/04/04 09:53:11;;;;;;;12.87;6.47;;;;;;;;;;6152372;23;20180;-88
2022/04/04 09:55:41;;;;;;;13.67;4.80;;;;;;;;;;6152486;23;20241;-87
2022/04/04 09:58:11;;;;;;;12.33;4.07;;;;;;;;;;6149746;23;20236;-87
2022/04/04 10:00:44;;;;;;;11.63;5.83;;;;;;;;;;6153908;23;20204;-86
2022/04/04 10:03:13;;;;;;;11.03;4.33;;;;;;;;;;6152046;23;20213;-85
2022/04/04 10:05:43;;;;;;;8.87;4.13;;;;;;;;;;6152354;23;20200;-85
2022/04/04 10:08:14;;;;;;;14.73;5.00;;;;;;;;;;6152927;23;20168;-84
2022/04/04 10:10:42;;;;;;;9.13;4.30;;;;;;;;;;6151446;23;20264;-84
2022/04/04 10:13:11;;;;;;;5.03;2.53;;;;;;;;;;6151476;23;20258;-85
2022/04/04 10:15:42;;;;;;;7.10;3.73;;;;;;;;;;6152808;23;20177;-85
2022/04/04 10:18:11;;;;;;;7.90;2.87;;;;;;;;;;6151305;23;20181;-84
2022/04/04 10:20:39;;;;;;;16.97;4.93;;;;;;;;;;6152651;23;20212;-84
2022/04/04 10:23:12;;;;;;;7.67;3.80;;;;;;;;;;6153138;23;20209;-85
2022/04/04 10:25:50;;;;;;;7.00;4.10;;;;;;;;;;6151073;23;20180;-84
2022/04/04 10:28:27;;;;;;;8.37;3.20;;;;;;;;;;6154036;23;20196;-85
2022/04/04 10:31:00;;;;;;;10.13;5.03;;;;;;;;;;6127468;23;20177;-84
2022/04/04 10:33:34;;;;;;;7.03;3.17;;;;;;;;;;6126345;23;20177;-83
2022/04/04 10:36:07;;;;;;;6.90;4.07;;;;;;;;;;6127050;23;20204;-85
2022/04/04 10:38:37;;;;;;;12.17;3.40;;;;;;;;;;6152869;23;20249;-85
2022/04/04 10:41:07;;;;;;;12.17;4.93;;;;;;;;;;6151018;23;20181;-84
2022/04/04 10:43:36;;;;;;;6.57;3.27;;;;;;;;;;6151137;23;20202;-83
2022/04/04 10:46:09;;;;;;;9.67;4.03;;;;;;;;;;6152597;23;20208;-84
2022/04/04 10:48:40;;;;;;;3.60;2.87;;;;;;;;;;6127219;23;20274;-84
2022/04/04 10:51:17;;;;;;;8.23;3.03;;;;;;;;;;6127987;23;20182;-84
2022/04/04 10:53:49;;;;;;;7.83;4.33;;;;;;;;;;6126647;23;20181;-86
2022/04/04 10:56:20;;;;;;;7.47;3.37;;;;;;;;;;6126781;23;20181;-84
2022/04/04 10:58:49;;;;;;;5.00;4.50;;;;;;;;;;6151842;23;20272;-84
2022/04/04 11:01:20;;;;;;;10.63;4.83;;;;;;;;;;6151150;23;20268;-86
2022/04/04 11:04:00;;;;;;;11.73;5.57;;;;;;;;;;6127706;23;20209;-84
2022/04/04 11:09:26;;;;;;;11.23;6.70;;;;;;;;;;6127678;23;20201;-84
2022/04/04 11:11:55;;;;;;;7.70;4.60;;;;;;;;;;6153030;23;20182;-85
2022/04/04 11:14:43;;;;;;;6.93;5.70;;;;;;;;;;6153730;23;20183;-85
2022/04/04 11:17:23;;;;;;;11.97;7.90;;;;;;;;;;6152225;23;20186;-85
2022/04/04 11:19:53;;;;;;;23.50;10.33;;;;;;;;;;6127451;23;20213;-85
2022/04/04 11:22:22;;;;;;;15.60;10.23;;;;;;;;;;6152229;23;20232;-85
2022/04/04 11:24:52;;;;;;;15.17;8.13;;;;;;;;;;6153197;23;20218;-84
2022/04/04 11:27:21;;;;;;;16.40;8.93;;;;;;;;;;6127453;23;20178;-84
2022/04/04 11:29:50;;;;;;;15.50;9.50;;;;;;;;;;6151939;23;20190;-86
2022/04/04 11:32:30;;;;;;;13.73;8.30;;;;;;;;;;6127905;23;20188;-85
2022/04/04 11:35:08;;;;;;;14.83;6.63;;;;;;;;;;6153251;23;20189;-86
2022/04/04 11:37:42;;;;;;;18.23;9.13;;;;;;;;;;6151914;23;20185;-85
2022/04/04 11:40:14;;;;;;;27.53;11.60;;;;;;;;;;6152182;23;20192;-84
2022/04/04 11:42:44;;;;;;;16.07;8.57;;;;;;;;;;6151627;23;20216;-84
2022/04/04 11:45:15;;;;;;;21.07;10.37;;;;;;;;;;6153027;23;20252;-84
2022/04/04 11:47:56;;;;;;;12.83;8.10;;;;;;;;;;6127600;23;20302;-85
2022/04/04 11:50:28;;;;;;;10.67;5.40;;;;;;;;;;6128005;23;20182;-85
2022/04/04 11:52:59;;;;;;;9.97;7.17;;;;;;;;;;6128014;23;20178;-84
2022/04/04 11:55:28;;;;;;;16.50;8.10;;;;;;;;;;6128100;23;20184;-85
2022/04/04 11:57:58;;;;;;;24.90;11.60;;;;;;;;;;6150780;23;20177;-84
2022/04/04 12:00:28;;;;;;;23.30;6.60;;;;;;;;;;6126564;23;20205;-84
2022/04/04 12:02:58;;;;;;;9.33;5.50;;;;;;;;;;6126748;23;20195;-85
2022/04/04 12:05:27;;;;;;;16.80;9.50;;;;;;;;;;6151019;23;20568;-84
2022/04/04 12:07:56;;;;;;;13.10;6.57;;;;;;;;;;6127759;23;20176;-85
2022/04/04 12:10:36;;;;;;;18.67;8.83;;;;;;;;;;6152033;23;20177;-84
2022/04/04 12:13:06;;;;;;;14.00;6.97;;;;;;;;;;6155001;23;20170;-86
2022/04/04 12:15:36;;;;;;;15.97;6.73;;;;;;;;;;6154035;23;20176;-88
2022/04/04 12:18:07;;;;;;;15.27;7.93;;;;;;;;;;6153289;23;20227;-84
2022/04/04 12:20:39;;;;;;;13.40;6.00;;;;;;;;;;6154346;23;20227;-85
2022/04/04 12:25:58;;;;;;;9.43;5.30;;;;;;;;;;6125374;23;20181;-86
2022/04/04 12:28:27;;;;;;;15.97;6.00;;;;;;;;;;6151632;23;20185;-86
2022/04/04 12:30:56;;;;;;;23.03;9.10;;;;;;;;;;6126302;23;20182;-86
2022/04/04 12:33:36;;;;;;;16.57;7.00;;;;;;;;;;6126374;23;20227;-86
2022/04/04 12:36:05;;;;;;;15.53;7.80;;;;;;;;;;6151947;23;20181;-86
2022/04/04 12:38:36;;;;;;;9.37;5.07;;;;;;;;;;6151050;23;20177;-85
2022/04/04 12:41:10;;;;;;;13.80;6.80;;;;;;;;;;6151128;23;20181;-86
2022/04/04 12:43:42;;;;;;;13.17;7.20;;;;;;;;;;6152146;23;20284;-87
2022/04/04 12:46:25;;;;;;;17.60;7.13;;;;;;;;;;6151942;23;20186;-87
2022/04/04 12:49:12;;;;;;;17.30;5.47;;;;;;;;;;6128352;23;20185;-87
2022/04/04 12:51:42;;;;;;;13.50;5.60;;;;;;;;;;6152125;23;20186;-86
2022/04/04 12:54:11;;;;;;;10.03;5.90;;;;;;;;;;6153206;23;20204;-87
2022/04/04 12:56:50;;;;;;;15.93;8.03;;;;;;;;;;6153449;23;20229;-86
2022/04/04 12:59:19;;;;;;;15.87;7.07;;;;;;;;;;6152479;23;20200;-87
2022/04/04 13:02:13;;;;;;;21.50;6.90;;;;;;;;;;6153852;23;20228;-87
2022/04/04 13:04:44;;;;;;;17.10;7.97;;;;;;;;;;6133743;23;20197;-88
2022/04/04 13:07:16;;;;;;;14.73;6.00;;;;;;;;;;6154788;23;20243;-87
2022/04/04 13:09:51;;;;;;;4.40;3.67;;;;;;;;;;6155428;23;20182;-86
2022/04/04 13:12:26;;;;;;;19.03;7.43;;;;;;;;;;6153513;23;20266;-85
2022/04/04 13:14:55;;;;;;;15.60;8.60;;;;;;;;;;6153801;23;20186;-86
2022/04/04 13:17:34;;;;;;;11.57;6.47;;;;;;;;;;6153929;23;20182;-87
2022/04/04 13:20:04;;;;;;;15.97;7.67;;;;;;;;;;6153817;23;20218;-86
2022/04/04 13:22:33;;;;;;;26.93;10.43;;;;;;;;;;6152542;23;20214;-85
2022/04/04 13:25:02;;;;;;;14.70;7.43;;;;;;;;;;6128131;23;20202;-85
2022/04/04 13:27:31;;;;;;;13.20;7.73;;;;;;;;;;6153280;23;20267;-86
2022/04/04 13:29:59;;;;;;;20.03;10.03;;;;;;;;;;6129096;23;20178;-86
2022/04/04 13:32:28;;;;;;;14.27;5.47;;;;;;;;;;6153873;23;20187;-85
2022/04/04 13:34:57;;;;;;;11.33;6.60;;;;;;;;;;6152210;23;20178;-86
2022/04/04 13:37:27;;;;;;;24.13;9.97;;;;;;;;;;6152337;23;20210;-86
2022/04/04 13:39:55;;;;;;;13.50;5.93;;;;;;;;;;6152749;23;20180;-86
2022/04/04 13:42:24;;;;;;;13.27;6.77;;;;;;;;;;6154138;23;20186;-86
2022/04/04 13:44:55;;;;;;;12.20;5.87;;;;;;;;;;6153104;23;20206;-86
2022/04/04 13:47:24;;;;;;;15.40;5.97;;;;;;;;;;6153576;23;20261;-87
2022/04/04 13:49:53;;;;;;;18.63;8.27;;;;;;;;;;6152679;23;20180;-86
2022/04/04 13:52:22;;;;;;;25.73;8.13;;;;;;;;;;6153154;23;20186;-87
2022/04/04 13:54:52;;;;;;;13.47;7.37;;;;;;;;;;6152872;23;20182;-87
2022/04/04 13:57:21;;;;;;;15.00;6.80;;;;;;;;;;6152182;23;20268;-87
2022/04/04 13:59:50;;;;;;;6.97;4.03;;;;;;;;;;6129400;23;20186;-85
2022/04/04 14:02:20;;;;;;;8.37;4.57;;;;;;;;;;6131160;23;20185;-87
2022/04/04 14:04:49;;;;;;;19.00;9.37;;;;;;;;;;6153824;23;20253;-88
2022/04/04 14:07:17;;;;;;;14.27;7.60;;;;;;;;;;6152950;23;20185;-86
2022/04/04 14:09:46;;;;;;;16.93;7.20;;;;;;;;;;6152722;23;20241;-86
2022/04/04 14:12:18;;;;;;;13.97;6.47;;;;;;;;;;6128977;23;20184;-88
2022/04/04 14:14:46;;;;;;;16.17;7.33;;;;;;;;;;6153596;23;20191;-87
2022/04/04 14:17:16;;;;;;;14.93;6.93;;;;;;;;;;6153381;23;20182;-87
2022/04/04 14:19:44;;;;;;;15.67;6.00;;;;;;;;;;6126844;23;20214;-87
2022/04/04 14:22:19;;;;;;;19.37;9.50;;;;;;;;;;6154783;23;20180;-87
2022/04/04 14:24:49;;;;;;;19.13;8.67;;;;;;;;;;6152931;23;20199;-86
2022/04/04 14:27:19;;;;;;;15.37;6.87;;;;;;;;;;6154161;23;20177;-86
2022/04/04 14:29:49;;;;;;;14.00;7.63;;;;;;;;;;6153046;23;20271;-87
2022/04/04 14:32:17;;;;;;;18.33;8.93;;;;;;;;;;6128948;23;20188;-86
2022/04/04 14:34:46;;;;;;;18.10;8.47;;;;;;;;;;6152029;23;20176;-86
2022/04/04 14:37:18;;;;;;;12.50;5.90;;;;;;;;;;6152199;23;20189;-86
2022/04/04 14:39:58;;;;;;;20.83;12.10;;;;;;;;;;6153499;23;20203;-87
2022/04/04 14:42:36;;;;;;;11.63;7.20;;;;;;;;;;6127975;23;20310;-88
2022/04/04 14:45:06;;;;;;;15.17;9.97;;;;;;;;;;6152526;23;20286;-86
2022/04/04 14:47:35;;;;;;;24.93;12.13;;;;;;;;;;6152488;23;20182;-88
2022/04/04 14:50:07;;;;;;;19.80;11.13;;;;;;;;;;6129147;23;20197;-88
2022/04/04 14:52:36;;;;;;;18.87;10.93;;;;;;;;;;6128292;23;20179;-88
2022/04/04 14:55:05;;;;;;;15.03;9.50;;;;;;;;;;6127210;23;20175;-89
2022/04/04 14:57:35;;;;;;;22.63;13.73;;;;;;;;;;6153425;23;20212;-90
2022/04/04 15:00:05;;;;;;;12.83;7.30;;;;;;;;;;6153234;23;20244;-89
2022/04/04 15:02:36;;;;;;;17.47;7.70;;;;;;;;;;6151696;23;20177;-87
2022/04/04 15:05:27;;;;;;;27.90;16.77;;;;;;;;;;6125907;23;20205;-88
2022/04/04 15:07:56;;;;;;;11.57;6.53;;;;;;;;;;6152392;23;20173;-89